Time,TemperatureF,DewpointF,PressureIn,WindDirection,WindDirectionDegrees,WindSpeedMPH,WindSpeedGustMPH,Humidity,HourlyPrecipIn,Conditions,Clouds,dailyrainin,SoftwareType,DateUTC
2013-07-03 00:00:00,62.9,59.9,30.00,SE,131,0.0,0.0,90,0.00,,---,0.22,VWS V14.01,2013-07-03 05:00:00,
2013-07-03 00:05:00,61.5,59.2,30.00,SE,131,0.0,3.0,92,0.00,,---,0.00,VWS V14.01,2013-07-03 05:05:00,
2013-07-03 00:30:00,62.5,59.8,30.00,SE,131,0.0,3.0,91,0.00,,---,0.22,VWS V14.01,2013-07-03 05:30:00,
2013-07-03 00:35:00,61.1,59.1,30.01,ESE,119,0.0,9.0,93,0.00,,---,0.00,VWS V14.01,2013-07-03 05:35:00,
2013-07-03 01:00:00,61.5,59.2,30.00,SE,131,0.0,3.0,92,0.00,,---,0.00,VWS V14.01,2013-07-03 06:00:00,
2013-07-03 01:05:00,60.7,59.0,30.00,SE,124,6.0,6.0,94,0.00,,---,0.00,VWS V14.01,2013-07-03 06:05:00,
2013-07-03 01:30:00,61.1,59.1,30.01,ESE,119,0.0,9.0,93,0.00,,---,0.00,VWS V14.01,2013-07-03 06:30:00,
2013-07-03 01:35:00,60.2,58.5,30.00,SE,124,0.0,6.0,94,0.00,,---,0.00,VWS V14.01,2013-07-03 06:35:00,
2013-07-03 02:00:00,60.7,59.0,30.00,SE,124,6.0,6.0,94,0.00,,---,0.00,VWS V14.01,2013-07-03 07:00:00,
2013-07-03 02:05:00,60.2,58.8,30.00,SE,124,0.0,9.0,95,0.00,,---,0.00,VWS V14.01,2013-07-03 07:05:00,
2013-07-03 02:30:00,60.2,58.5,30.00,SE,124,0.0,6.0,94,0.00,,---,0.00,VWS V14.01,2013-07-03 07:30:00,
2013-07-03 02:35:00,60.1,58.7,29.99,SE,124,0.0,6.0,95,0.00,,---,0.00,VWS V14.01,2013-07-03 07:35:00,
2013-07-03 03:00:00,60.2,58.8,30.00,SE,124,0.0,9.0,95,0.00,,---,0.00,VWS V14.01,2013-07-03 08:00:00,
2013-07-03 03:05:00,59.7,58.3,29.99,SE,124,0.0,6.0,95,0.00,,---,0.00,VWS V14.01,2013-07-03 08:05:00,
2013-07-03 03:30:00,60.1,58.7,29.99,SE,124,0.0,6.0,95,0.00,,---,0.00,VWS V14.01,2013-07-03 08:30:00,
2013-07-03 04:00:00,59.7,58.3,29.99,SE,124,0.0,6.0,95,0.00,,---,0.00,VWS V14.01,2013-07-03 09:00:00,
2013-07-03 04:30:00,59.2,57.5,29.99,SE,124,0.0,6.0,94,0.00,,---,0.00,VWS V14.01,2013-07-03 09:30:00,
2013-07-03 04:35:00,57.6,56.2,29.99,SE,124,0.0,3.0,95,0.00,,---,0.00,VWS V14.01,2013-07-03 09:35:00,
2013-07-03 05:00:00,58.4,56.7,29.99,SE,124,0.0,6.0,94,0.00,,---,0.00,VWS V14.01,2013-07-03 10:00:00,
2013-07-03 05:30:00,57.6,56.2,29.99,SE,124,0.0,3.0,95,0.00,,---,0.00,VWS V14.01,2013-07-03 10:30:00,
2013-07-03 05:35:00,56.6,55.5,30.00,SE,124,0.0,0.0,96,0.00,,---,0.00,VWS V14.01,2013-07-03 10:35:00,
2013-07-03 06:00:00,57.1,55.7,29.99,SE,124,0.0,3.0,95,0.00,,---,0.00,VWS V14.01,2013-07-03 11:00:00,
2013-07-03 06:05:00,56.8,55.7,30.00,SE,124,0.0,0.0,96,0.00,,---,0.00,VWS V14.01,2013-07-03 11:05:00,
2013-07-03 06:30:00,56.6,55.5,30.00,SE,124,0.0,0.0,96,0.00,,---,0.00,VWS V14.01,2013-07-03 11:30:00,
2013-07-03 06:35:00,56.7,55.6,30.01,SE,124,0.0,0.0,96,0.00,,---,0.00,VWS V14.01,2013-07-03 11:35:00,
2013-07-03 07:00:00,56.8,55.7,30.00,SE,124,0.0,0.0,96,0.00,,---,0.00,VWS V14.01,2013-07-03 12:00:00,
2013-07-03 07:30:00,56.7,55.6,30.01,SE,124,0.0,0.0,96,0.00,,---,0.00,VWS V14.01,2013-07-03 12:30:00,
2013-07-03 07:35:00,60.0,57.7,30.01,SE,124,0.0,0.0,92,0.00,,---,0.00,VWS V14.01,2013-07-03 12:35:00,
2013-07-03 08:00:00,58.4,57.6,30.01,SE,124,0.0,3.0,97,0.00,,---,0.00,VWS V14.01,2013-07-03 13:00:00,
2013-07-03 08:05:00,62.0,58.7,30.02,SE,124,3.0,12.0,89,0.00,,---,0.00,VWS V14.01,2013-07-03 13:05:00,
2013-07-03 08:30:00,60.0,57.7,30.01,SE,124,0.0,0.0,92,0.00,,---,0.00,VWS V14.01,2013-07-03 13:30:00,
2013-07-03 08:35:00,64.3,60.7,30.02,SE,126,0.0,9.0,88,0.00,,---,0.00,VWS V14.01,2013-07-03 13:35:00,
2013-07-03 09:00:00,62.0,58.7,30.02,SE,124,3.0,12.0,89,0.00,,---,0.00,VWS V14.01,2013-07-03 14:00:00,
2013-07-03 09:30:00,64.3,60.7,30.02,SE,126,0.0,9.0,88,0.00,,---,0.00,VWS V14.01,2013-07-03 14:30:00,
2013-07-03 09:35:00,68.6,62.5,30.02,SSW,203,3.0,12.0,81,0.00,,---,0.00,VWS V14.01,2013-07-03 14:35:00,
2013-07-03 10:00:00,66.5,61.2,30.02,ESE,117,3.0,15.0,83,0.00,,---,0.00,VWS V14.01,2013-07-03 15:00:00,
2013-07-03 10:05:00,70.6,61.9,30.02,ESE,118,3.0,12.0,74,0.00,,---,0.00,VWS V14.01,2013-07-03 15:05:00,
2013-07-03 10:30:00,68.6,62.5,30.02,SSW,203,3.0,12.0,81,0.00,,---,0.00,VWS V14.01,2013-07-03 15:30:00,
2013-07-03 10:35:00,72.6,63.8,30.02,South,191,3.0,21.0,74,0.00,,---,0.00,VWS V14.01,2013-07-03 15:35:00,
2013-07-03 11:00:00,70.6,61.9,30.02,ESE,118,3.0,12.0,74,0.00,,---,0.00,VWS V14.01,2013-07-03 16:00:00,
2013-07-03 11:30:00,72.6,63.8,30.02,South,191,3.0,21.0,74,0.00,,---,0.00,VWS V14.01,2013-07-03 16:30:00,
2013-07-03 11:35:00,75.1,63.0,30.02,ESE,111,0.0,21.0,66,0.00,,---,0.00,VWS V14.01,2013-07-03 16:35:00,
2013-07-03 12:00:00,74.7,63.5,30.01,ESE,122,6.0,24.0,68,0.00,,---,0.00,VWS V14.01,2013-07-03 17:00:00,
2013-07-03 12:05:00,76.0,64.3,30.01,East,85,6.0,24.0,67,0.00,,---,0.00,VWS V14.01,2013-07-03 17:05:00,
2013-07-03 12:30:00,75.1,63.0,30.02,ESE,111,0.0,21.0,66,0.00,,---,0.00,VWS V14.01,2013-07-03 17:30:00,
2013-07-03 12:35:00,76.7,63.2,30.01,ESE,121,12.0,21.0,63,0.00,,---,0.00,VWS V14.01,2013-07-03 17:35:00,
2013-07-03 13:00:00,76.0,64.3,30.01,East,85,6.0,24.0,67,0.00,,---,0.00,VWS V14.01,2013-07-03 18:00:00,
2013-07-03 13:05:00,75.8,62.8,30.00,East,94,6.0,27.0,64,0.00,,---,0.00,VWS V14.01,2013-07-03 18:05:00,
2013-07-03 13:30:00,76.7,63.2,30.01,ESE,121,12.0,21.0,63,0.00,,---,0.00,VWS V14.01,2013-07-03 18:30:00,
2013-07-03 13:35:00,77.2,63.6,30.00,SE,127,6.0,24.0,63,0.00,,---,0.00,VWS V14.01,2013-07-03 18:35:00,
2013-07-03 14:00:00,75.8,62.8,30.00,East,94,6.0,27.0,64,0.00,,---,0.00,VWS V14.01,2013-07-03 19:00:00,
2013-07-03 14:05:00,77.3,63.7,30.00,SE,130,12.0,30.0,63,0.00,,---,0.00,VWS V14.01,2013-07-03 19:05:00,
2013-07-03 14:30:00,77.2,63.6,30.00,SE,127,6.0,24.0,63,0.00,,---,0.00,VWS V14.01,2013-07-03 19:30:00,
2013-07-03 14:35:00,76.5,64.7,29.99,South,180,6.0,24.0,67,0.00,,---,0.00,VWS V14.01,2013-07-03 19:35:00,
2013-07-03 15:00:00,77.3,63.7,30.00,SE,130,12.0,30.0,63,0.00,,---,0.00,VWS V14.01,2013-07-03 20:00:00,
2013-07-03 15:05:00,76.6,63.5,29.99,South,184,6.0,21.0,64,0.00,,---,0.00,VWS V14.01,2013-07-03 20:05:00,
2013-07-03 15:30:00,76.5,64.7,29.99,South,180,6.0,24.0,67,0.00,,---,0.00,VWS V14.01,2013-07-03 20:30:00,
2013-07-03 16:00:00,76.6,63.5,29.99,South,184,6.0,21.0,64,0.00,,---,0.00,VWS V14.01,2013-07-03 21:00:00,
2013-07-03 16:05:00,78.6,61.6,29.97,SSW,200,9.0,24.0,56,0.00,,---,0.00,VWS V14.01,2013-07-03 21:05:00,
2013-07-03 16:30:00,78.6,63.6,29.98,SE,125,3.0,24.0,60,0.00,,---,0.00,VWS V14.01,2013-07-03 21:30:00,
2013-07-03 16:35:00,77.5,60.1,29.97,SE,136,6.0,21.0,55,0.00,,---,0.00,VWS V14.01,2013-07-03 21:35:00,
2013-07-03 17:00:00,78.6,61.6,29.97,SSW,200,9.0,24.0,56,0.00,,---,0.00,VWS V14.01,2013-07-03 22:00:00,
2013-07-03 17:05:00,79.1,60.5,29.96,South,186,6.0,21.0,53,0.00,,---,0.00,VWS V14.01,2013-07-03 22:05:00,
2013-07-03 17:30:00,77.5,60.1,29.97,SE,136,6.0,21.0,55,0.00,,---,0.00,VWS V14.01,2013-07-03 22:30:00,
2013-07-03 17:35:00,79.8,61.2,29.96,ESE,120,9.0,15.0,53,0.00,,---,0.00,VWS V14.01,2013-07-03 22:35:00,
2013-07-03 18:00:00,79.1,60.5,29.96,South,186,6.0,21.0,53,0.00,,---,0.00,VWS V14.01,2013-07-03 23:00:00,
2013-07-03 18:05:00,79.8,57.2,29.95,SE,141,0.0,18.0,46,0.00,,---,0.00,VWS V14.01,2013-07-03 23:05:00,
2013-07-03 18:30:00,79.8,61.2,29.96,ESE,120,9.0,15.0,53,0.00,,---,0.00,VWS V14.01,2013-07-03 23:30:00,
2013-07-03 18:35:00,79.7,59.4,29.94,South,190,0.0,15.0,50,0.00,,---,0.00,VWS V14.01,2013-07-03 23:35:00,
2013-07-03 19:00:00,79.8,57.2,29.95,SE,141,0.0,18.0,46,0.00,,---,0.00,VWS V14.01,2013-07-04 00:00:00,
2013-07-03 19:05:00,78.7,61.7,29.95,ESE,109,3.0,15.0,56,0.00,,---,0.00,VWS V14.01,2013-07-04 00:05:00,
2013-07-03 19:30:00,79.7,59.4,29.94,South,190,0.0,15.0,50,0.00,,---,0.00,VWS V14.01,2013-07-04 00:30:00,
2013-07-03 19:35:00,76.4,60.5,29.95,ESE,118,3.0,12.0,58,0.00,,---,0.00,VWS V14.01,2013-07-04 00:35:00,
2013-07-03 20:00:00,78.7,61.7,29.95,ESE,109,3.0,15.0,56,0.00,,---,0.00,VWS V14.01,2013-07-04 01:00:00,
2013-07-03 20:05:00,75.9,61.0,29.95,ESE,119,9.0,9.0,60,0.00,,---,0.00,VWS V14.01,2013-07-04 01:05:00,
2013-07-03 20:30:00,76.4,60.5,29.95,ESE,118,3.0,12.0,58,0.00,,---,0.00,VWS V14.01,2013-07-04 01:30:00,
2013-07-03 20:35:00,74.1,59.8,29.95,ESE,119,0.0,9.0,61,0.00,,---,0.00,VWS V14.01,2013-07-04 01:35:00,
2013-07-03 21:00:00,75.9,61.0,29.95,ESE,119,9.0,9.0,60,0.00,,---,0.00,VWS V14.01,2013-07-04 02:00:00,
2013-07-03 21:05:00,72.1,59.3,29.96,ESE,119,0.0,9.0,64,0.00,,---,0.00,VWS V14.01,2013-07-04 02:05:00,
2013-07-03 21:30:00,74.1,59.8,29.95,ESE,119,0.0,9.0,61,0.00,,---,0.00,VWS V14.01,2013-07-04 02:30:00,
2013-07-03 21:35:00,71.2,59.7,29.96,ESE,119,6.0,9.0,67,0.00,,---,0.00,VWS V14.01,2013-07-04 02:35:00,
2013-07-03 22:00:00,72.1,59.3,29.96,ESE,119,0.0,9.0,64,0.00,,---,0.00,VWS V14.01,2013-07-04 03:00:00,
2013-07-03 22:05:00,70.8,60.9,29.98,SE,127,3.0,12.0,71,0.00,,---,0.00,VWS V14.01,2013-07-04 03:05:00,
2013-07-03 22:30:00,71.2,59.7,29.96,ESE,119,6.0,9.0,67,0.00,,---,0.00,VWS V14.01,2013-07-04 03:30:00,
2013-07-03 23:00:00,70.8,60.9,29.98,SE,127,3.0,12.0,71,0.00,,---,0.00,VWS V14.01,2013-07-04 04:00:00,
2013-07-03 23:05:00,69.3,61.4,29.98,ESE,122,6.0,15.0,76,0.00,,---,0.00,VWS V14.01,2013-07-04 04:05:00,
2013-07-03 23:30:00,69.9,61.2,29.98,SE,127,3.0,9.0,74,0.00,,---,0.00,VWS V14.01,2013-07-04 04:30:00,
2013-07-03 23:35:00,68.5,61.4,29.98,SE,125,0.0,12.0,78,0.00,,---,0.00,VWS V14.01,2013-07-04 04:35:00,